sensor_id;sensor_type;location;lat;lon;timestamp;P1;durP1;ratioP1;P2;durP2;ratioP2
71810;SDS011;59657;0.000;0.000;2022-08-03T00:00:39;1.83;;;1.73;;
71810;SDS011;59657;0.000;0.000;2022-08-03T00:03:06;2.10;;;2.00;;
71810;SDS011;59657;0.000;0.000;2022-08-03T00:08:00;1.67;;;1.58;;
71810;SDS011;59657;0.000;0.000;2022-08-03T00:10:27;1.77;;;1.67;;
71810;SDS011;59657;0.000;0.000;2022-08-03T00:12:54;2.00;;;1.90;;
71810;SDS011;59657;0.000;0.000;2022-08-03T00:17:46;1.88;;;1.77;;
71810;SDS011;59657;0.000;0.000;2022-08-03T00:22:39;2.20;;;2.10;;
71810;SDS011;59657;0.000;0.000;2022-08-03T00:27:34;1.30;;;1.30;;
71810;SDS011;59657;0.000;0.000;2022-08-03T00:30:01;2.92;;;2.72;;
71810;SDS011;59657;0.000;0.000;2022-08-03T00:34:54;1.70;;;1.60;;
71810;SDS011;59657;0.000;0.000;2022-08-03T00:37:20;1.45;;;1.45;;
71810;SDS011;59657;0.000;0.000;2022-08-03T00:42:13;2.08;;;1.98;;
71810;SDS011;59657;0.000;0.000;2022-08-03T00:44:41;1.58;;;1.55;;
71810;SDS011;59657;0.000;0.000;2022-08-03T00:47:07;1.88;;;1.77;;
71810;SDS011;59657;0.000;0.000;2022-08-03T00:49:36;1.27;;;1.27;;
71810;SDS011;59657;0.000;0.000;2022-08-03T00:52:03;2.08;;;1.98;;
71810;SDS011;59657;0.000;0.000;2022-08-03T00:54:31;1.73;;;1.63;;
71810;SDS011;59657;0.000;0.000;2022-08-03T00:56:58;1.65;;;1.65;;
71810;SDS011;59657;0.000;0.000;2022-08-03T00:59:26;1.85;;;1.75;;
71810;SDS011;59657;0.000;0.000;2022-08-03T01:01:52;2.40;;;2.20;;
71810;SDS011;59657;0.000;0.000;2022-08-03T01:06:49;1.52;;;1.50;;
71810;SDS011;59657;0.000;0.000;2022-08-03T01:09:26;1.35;;;1.30;;
71810;SDS011;59657;0.000;0.000;2022-08-03T01:14:26;1.60;;;1.50;;
71810;SDS011;59657;0.000;0.000;2022-08-03T01:16:58;1.55;;;1.45;;
71810;SDS011;59657;0.000;0.000;2022-08-03T01:22:14;1.60;;;1.50;;
71810;SDS011;59657;0.000;0.000;2022-08-03T01:24:46;1.58;;;1.58;;
71810;SDS011;59657;0.000;0.000;2022-08-03T01:29:48;1.70;;;1.60;;
71810;SDS011;59657;0.000;0.000;2022-08-03T01:32:17;1.58;;;1.58;;
71810;SDS011;59657;0.000;0.000;2022-08-03T01:34:47;1.55;;;1.55;;
71810;SDS011;59657;0.000;0.000;2022-08-03T01:37:25;1.83;;;1.73;;
71810;SDS011;59657;0.000;0.000;2022-08-03T01:39:53;1.88;;;1.77;;
71810;SDS011;59657;0.000;0.000;2022-08-03T01:42:22;1.60;;;1.50;;
71810;SDS011;59657;0.000;0.000;2022-08-03T01:44:50;1.70;;;1.60;;
71810;SDS011;59657;0.000;0.000;2022-08-03T01:47:19;1.90;;;1.80;;
71810;SDS011;59657;0.000;0.000;2022-08-03T01:49:46;1.60;;;1.50;;
71810;SDS011;59657;0.000;0.000;2022-08-03T01:52:16;1.85;;;1.75;;
71810;SDS011;59657;0.000;0.000;2022-08-03T01:54:44;1.55;;;1.50;;
71810;SDS011;59657;0.000;0.000;2022-08-03T01:57:11;1.92;;;1.83;;
71810;SDS011;59657;0.000;0.000;2022-08-03T01:59:38;1.70;;;1.60;;
71810;SDS011;59657;0.000;0.000;2022-08-03T02:02:06;1.88;;;1.77;;
71810;SDS011;59657;0.000;0.000;2022-08-03T02:04:33;2.10;;;2.00;;
71810;SDS011;59657;0.000;0.000;2022-08-03T02:07:01;1.60;;;1.60;;
71810;SDS011;59657;0.000;0.000;2022-08-03T02:09:28;1.98;;;1.88;;
71810;SDS011;59657;0.000;0.000;2022-08-03T02:11:55;1.60;;;1.50;;
71810;SDS011;59657;0.000;0.000;2022-08-03T02:14:22;1.73;;;1.63;;
71810;SDS011;59657;0.000;0.000;2022-08-03T02:19:15;1.75;;;1.67;;
71810;SDS011;59657;0.000;0.000;2022-08-03T02:21:42;8.88;;;1.70;;
71810;SDS011;59657;0.000;0.000;2022-08-03T02:24:10;1.60;;;1.50;;
71810;SDS011;59657;0.000;0.000;2022-08-03T02:29:06;1.70;;;1.60;;
71810;SDS011;59657;0.000;0.000;2022-08-03T02:31:35;1.55;;;1.45;;
71810;SDS011;59657;0.000;0.000;2022-08-03T02:34:03;1.80;;;1.70;;
71810;SDS011;59657;0.000;0.000;2022-08-03T02:36:33;1.55;;;1.45;;
71810;SDS011;59657;0.000;0.000;2022-08-03T02:39:00;1.70;;;1.60;;
71810;SDS011;59657;0.000;0.000;2022-08-03T02:41:30;1.80;;;1.70;;
71810;SDS011;59657;0.000;0.000;2022-08-03T02:43:58;1.92;;;1.83;;
71810;SDS011;59657;0.000;0.000;2022-08-03T02:46:29;1.85;;;1.77;;
71810;SDS011;59657;0.000;0.000;2022-08-03T02:48:56;1.80;;;1.70;;
71810;SDS011;59657;0.000;0.000;2022-08-03T02:51:24;1.50;;;1.50;;
71810;SDS011;59657;0.000;0.000;2022-08-03T02:53:53;1.60;;;1.60;;
71810;SDS011;59657;0.000;0.000;2022-08-03T02:56:20;1.90;;;1.80;;
71810;SDS011;59657;0.000;0.000;2022-08-03T02:58:47;1.90;;;1.80;;
71810;SDS011;59657;0.000;0.000;2022-08-03T03:01:15;1.90;;;1.80;;
71810;SDS011;59657;0.000;0.000;2022-08-03T03:03:42;1.70;;;1.60;;
71810;SDS011;59657;0.000;0.000;2022-08-03T03:06:09;1.90;;;1.80;;
71810;SDS011;59657;0.000;0.000;2022-08-03T03:08:36;1.80;;;1.70;;
71810;SDS011;59657;0.000;0.000;2022-08-03T03:11:02;2.00;;;1.90;;
71810;SDS011;59657;0.000;0.000;2022-08-03T03:13:30;1.80;;;1.70;;
71810;SDS011;59657;0.000;0.000;2022-08-03T03:15:58;1.65;;;1.65;;
71810;SDS011;59657;0.000;0.000;2022-08-03T03:18:27;1.85;;;1.75;;
71810;SDS011;59657;0.000;0.000;2022-08-03T03:20:53;1.70;;;1.67;;
71810;SDS011;59657;0.000;0.000;2022-08-03T03:23:21;1.90;;;1.80;;
71810;SDS011;59657;0.000;0.000;2022-08-03T03:25:48;1.77;;;1.67;;
71810;SDS011;59657;0.000;0.000;2022-08-03T03:28:15;1.50;;;1.40;;
71810;SDS011;59657;0.000;0.000;2022-08-03T03:30:42;1.73;;;1.70;;
71810;SDS011;59657;0.000;0.000;2022-08-03T03:35:34;1.70;;;1.60;;
71810;SDS011;59657;0.000;0.000;2022-08-03T03:38:01;1.58;;;1.48;;
71810;SDS011;59657;0.000;0.000;2022-08-03T03:42:54;1.75;;;1.70;;
71810;SDS011;59657;0.000;0.000;2022-08-03T03:45:20;1.80;;;1.70;;
71810;SDS011;59657;0.000;0.000;2022-08-03T03:47:47;1.40;;;1.30;;
71810;SDS011;59657;0.000;0.000;2022-08-03T03:50:14;1.83;;;1.73;;
71810;SDS011;59657;0.000;0.000;2022-08-03T03:52:43;1.88;;;1.70;;
71810;SDS011;59657;0.000;0.000;2022-08-03T03:55:13;2.10;;;1.90;;
71810;SDS011;59657;0.000;0.000;2022-08-03T03:57:40;2.17;;;2.08;;
71810;SDS011;59657;0.000;0.000;2022-08-03T04:00:07;1.63;;;1.52;;
71810;SDS011;59657;0.000;0.000;2022-08-03T04:02:33;1.20;;;1.20;;
71810;SDS011;59657;0.000;0.000;2022-08-03T04:05:00;1.50;;;1.40;;
71810;SDS011;59657;0.000;0.000;2022-08-03T04:07:49;2.08;;;1.88;;
71810;SDS011;59657;0.000;0.000;2022-08-03T04:10:35;1.75;;;1.65;;
71810;SDS011;59657;0.000;0.000;2022-08-03T04:13:15;1.63;;;1.52;;
71810;SDS011;59657;0.000;0.000;2022-08-03T04:15:42;1.88;;;1.77;;
71810;SDS011;59657;0.000;0.000;2022-08-03T04:18:11;1.77;;;1.73;;
71810;SDS011;59657;0.000;0.000;2022-08-03T04:20:39;1.88;;;1.77;;
71810;SDS011;59657;0.000;0.000;2022-08-03T04:23:10;1.50;;;1.50;;
71810;SDS011;59657;0.000;0.000;2022-08-03T04:25:38;1.80;;;1.70;;
71810;SDS011;59657;0.000;0.000;2022-08-03T04:28:05;1.80;;;1.70;;
71810;SDS011;59657;0.000;0.000;2022-08-03T04:30:32;1.70;;;1.60;;
71810;SDS011;59657;0.000;0.000;2022-08-03T04:33:01;1.70;;;1.60;;
71810;SDS011;59657;0.000;0.000;2022-08-03T04:35:28;1.42;;;1.40;;
71810;SDS011;59657;0.000;0.000;2022-08-03T04:37:56;1.75;;;1.65;;
71810;SDS011;59657;0.000;0.000;2022-08-03T04:40:27;1.80;;;1.70;;
71810;SDS011;59657;0.000;0.000;2022-08-03T04:42:55;1.85;;;1.75;;
71810;SDS011;59657;0.000;0.000;2022-08-03T04:45:23;1.65;;;1.55;;
71810;SDS011;59657;0.000;0.000;2022-08-03T04:47:50;1.70;;;1.58;;
71810;SDS011;59657;0.000;0.000;2022-08-03T04:50:17;1.70;;;1.60;;
71810;SDS011;59657;0.000;0.000;2022-08-03T04:52:44;1.67;;;1.58;;
71810;SDS011;59657;0.000;0.000;2022-08-03T04:55:10;2.08;;;1.98;;
71810;SDS011;59657;0.000;0.000;2022-08-03T04:57:37;1.90;;;1.80;;
71810;SDS011;59657;0.000;0.000;2022-08-03T05:02:30;1.77;;;1.70;;
71810;SDS011;59657;0.000;0.000;2022-08-03T05:04:57;1.90;;;1.80;;
71810;SDS011;59657;0.000;0.000;2022-08-03T05:07:24;1.50;;;1.40;;
71810;SDS011;59657;0.000;0.000;2022-08-03T05:12:17;1.77;;;1.70;;
71810;SDS011;59657;0.000;0.000;2022-08-03T05:17:09;1.50;;;1.50;;
71810;SDS011;59657;0.000;0.000;2022-08-03T05:19:36;1.92;;;1.83;;
71810;SDS011;59657;0.000;0.000;2022-08-03T05:24:28;1.55;;;1.55;;
71810;SDS011;59657;0.000;0.000;2022-08-03T05:29:21;2.03;;;1.83;;
71810;SDS011;59657;0.000;0.000;2022-08-03T05:31:48;1.98;;;1.88;;
71810;SDS011;59657;0.000;0.000;2022-08-03T05:36:40;1.63;;;1.52;;
71810;SDS011;59657;0.000;0.000;2022-08-03T05:41:33;1.70;;;1.60;;
71810;SDS011;59657;0.000;0.000;2022-08-03T05:43:59;1.95;;;1.85;;
71810;SDS011;59657;0.000;0.000;2022-08-03T05:46:26;1.30;;;1.30;;
71810;SDS011;59657;0.000;0.000;2022-08-03T05:51:19;1.70;;;1.60;;
71810;SDS011;59657;0.000;0.000;2022-08-03T05:56:12;1.58;;;1.48;;
71810;SDS011;59657;0.000;0.000;2022-08-03T06:01:04;1.65;;;1.55;;
71810;SDS011;59657;0.000;0.000;2022-08-03T06:05:57;1.80;;;1.70;;
71810;SDS011;59657;0.000;0.000;2022-08-03T06:10:50;1.40;;;1.40;;
71810;SDS011;59657;0.000;0.000;2022-08-03T06:15:42;1.90;;;1.80;;
71810;SDS011;59657;0.000;0.000;2022-08-03T06:20:35;1.67;;;1.58;;
71810;SDS011;59657;0.000;0.000;2022-08-03T06:23:01;1.80;;;1.70;;
71810;SDS011;59657;0.000;0.000;2022-08-03T06:25:28;1.67;;;1.67;;
71810;SDS011;59657;0.000;0.000;2022-08-03T06:27:55;1.75;;;1.65;;
71810;SDS011;59657;0.000;0.000;2022-08-03T06:30:21;1.70;;;1.60;;
71810;SDS011;59657;0.000;0.000;2022-08-03T06:32:48;1.67;;;1.58;;
71810;SDS011;59657;0.000;0.000;2022-08-03T06:37:42;1.80;;;1.70;;
71810;SDS011;59657;0.000;0.000;2022-08-03T06:40:10;1.80;;;1.70;;
71810;SDS011;59657;0.000;0.000;2022-08-03T06:42:37;1.60;;;1.50;;
71810;SDS011;59657;0.000;0.000;2022-08-03T06:45:04;1.40;;;1.40;;
71810;SDS011;59657;0.000;0.000;2022-08-03T06:47:31;1.65;;;1.55;;
71810;SDS011;59657;0.000;0.000;2022-08-03T06:52:24;1.92;;;1.83;;
71810;SDS011;59657;0.000;0.000;2022-08-03T06:54:50;1.80;;;1.70;;
71810;SDS011;59657;0.000;0.000;2022-08-03T06:57:17;1.73;;;1.63;;
71810;SDS011;59657;0.000;0.000;2022-08-03T06:59:43;1.55;;;1.45;;
71810;SDS011;59657;0.000;0.000;2022-08-03T07:02:10;1.40;;;1.30;;
71810;SDS011;59657;0.000;0.000;2022-08-03T07:07:02;1.30;;;1.30;;
71810;SDS011;59657;0.000;0.000;2022-08-03T07:09:29;1.60;;;1.60;;
71810;SDS011;59657;0.000;0.000;2022-08-03T07:11:56;1.35;;;1.35;;
71810;SDS011;59657;0.000;0.000;2022-08-03T07:14:23;1.00;;;1.00;;
71810;SDS011;59657;0.000;0.000;2022-08-03T07:19:15;1.52;;;1.42;;
71810;SDS011;59657;0.000;0.000;2022-08-03T07:21:42;1.77;;;1.67;;
71810;SDS011;59657;0.000;0.000;2022-08-03T07:24:09;1.58;;;1.48;;
71810;SDS011;59657;0.000;0.000;2022-08-03T07:29:02;1.10;;;1.10;;
71810;SDS011;59657;0.000;0.000;2022-08-03T07:33:54;1.45;;;1.45;;
71810;SDS011;59657;0.000;0.000;2022-08-03T07:38:49;1.75;;;1.65;;
71810;SDS011;59657;0.000;0.000;2022-08-03T07:41:15;1.98;;;1.95;;
71810;SDS011;59657;0.000;0.000;2022-08-03T07:43:42;1.33;;;1.27;;
71810;SDS011;59657;0.000;0.000;2022-08-03T07:46:08;2.40;;;2.30;;
71810;SDS011;59657;0.000;0.000;2022-08-03T07:51:01;1.67;;;1.58;;
71810;SDS011;59657;0.000;0.000;2022-08-03T07:53:29;1.88;;;1.77;;
71810;SDS011;59657;0.000;0.000;2022-08-03T07:58:22;1.80;;;1.70;;
71810;SDS011;59657;0.000;0.000;2022-08-03T08:00:49;1.80;;;1.70;;
71810;SDS011;59657;0.000;0.000;2022-08-03T08:03:17;1.88;;;1.77;;
71810;SDS011;59657;0.000;0.000;2022-08-03T08:05:43;1.38;;;1.38;;
71810;SDS011;59657;0.000;0.000;2022-08-03T08:08:10;2.00;;;1.90;;
71810;SDS011;59657;0.000;0.000;2022-08-03T08:10:36;1.90;;;1.80;;
71810;SDS011;59657;0.000;0.000;2022-08-03T08:15:29;1.85;;;1.75;;
71810;SDS011;59657;0.000;0.000;2022-08-03T08:17:58;1.70;;;1.60;;
71810;SDS011;59657;0.000;0.000;2022-08-03T08:20:26;2.13;;;2.03;;
71810;SDS011;59657;0.000;0.000;2022-08-03T08:22:55;1.88;;;1.77;;
71810;SDS011;59657;0.000;0.000;2022-08-03T08:25:22;1.95;;;1.85;;
71810;SDS011;59657;0.000;0.000;2022-08-03T08:27:48;1.83;;;1.73;;
71810;SDS011;59657;0.000;0.000;2022-08-03T08:30:16;2.00;;;1.92;;
71810;SDS011;59657;0.000;0.000;2022-08-03T08:32:43;2.08;;;1.98;;
71810;SDS011;59657;0.000;0.000;2022-08-03T08:35:10;2.40;;;2.17;;
71810;SDS011;59657;0.000;0.000;2022-08-03T08:37:37;1.55;;;1.45;;
71810;SDS011;59657;0.000;0.000;2022-08-03T08:40:05;2.10;;;2.00;;
71810;SDS011;59657;0.000;0.000;2022-08-03T08:42:32;1.83;;;1.73;;
71810;SDS011;59657;0.000;0.000;2022-08-03T08:47:25;1.90;;;1.80;;
71810;SDS011;59657;0.000;0.000;2022-08-03T08:49:54;1.90;;;1.80;;
71810;SDS011;59657;0.000;0.000;2022-08-03T08:52:24;2.08;;;1.98;;
71810;SDS011;59657;0.000;0.000;2022-08-03T08:54:53;1.80;;;1.70;;
71810;SDS011;59657;0.000;0.000;2022-08-03T08:57:21;1.95;;;1.85;;
71810;SDS011;59657;0.000;0.000;2022-08-03T08:59:49;1.80;;;1.70;;
71810;SDS011;59657;0.000;0.000;2022-08-03T09:04:41;1.67;;;1.58;;
71810;SDS011;59657;0.000;0.000;2022-08-03T09:07:09;1.80;;;1.70;;
71810;SDS011;59657;0.000;0.000;2022-08-03T09:09:36;1.75;;;1.65;;
71810;SDS011;59657;0.000;0.000;2022-08-03T09:12:02;1.70;;;1.60;;
71810;SDS011;59657;0.000;0.000;2022-08-03T09:14:29;1.70;;;1.60;;
71810;SDS011;59657;0.000;0.000;2022-08-03T09:19:24;1.63;;;1.58;;
71810;SDS011;59657;0.000;0.000;2022-08-03T09:24:17;1.77;;;1.67;;
71810;SDS011;59657;0.000;0.000;2022-08-03T09:26:48;1.60;;;1.50;;
71810;SDS011;59657;0.000;0.000;2022-08-03T09:29:18;1.88;;;1.77;;
71810;SDS011;59657;0.000;0.000;2022-08-03T09:31:45;1.67;;;1.58;;
71810;SDS011;59657;0.000;0.000;2022-08-03T09:36:43;1.70;;;1.65;;
71810;SDS011;59657;0.000;0.000;2022-08-03T09:39:11;1.48;;;1.40;;
71810;SDS011;59657;0.000;0.000;2022-08-03T09:41:39;1.48;;;1.48;;
71810;SDS011;59657;0.000;0.000;2022-08-03T09:44:05;1.70;;;1.60;;
71810;SDS011;59657;0.000;0.000;2022-08-03T09:46:46;1.60;;;1.40;;
71810;SDS011;59657;0.000;0.000;2022-08-03T09:49:13;1.10;;;1.10;;
71810;SDS011;59657;0.000;0.000;2022-08-03T09:54:06;1.20;;;1.20;;
71810;SDS011;59657;0.000;0.000;2022-08-03T09:56:47;1.60;;;1.50;;
71810;SDS011;59657;0.000;0.000;2022-08-03T09:59:21;1.55;;;1.40;;
71810;SDS011;59657;0.000;0.000;2022-08-03T10:01:48;1.65;;;1.55;;
71810;SDS011;59657;0.000;0.000;2022-08-03T10:04:14;1.83;;;1.73;;
71810;SDS011;59657;0.000;0.000;2022-08-03T10:06:43;1.40;;;1.40;;
71810;SDS011;59657;0.000;0.000;2022-08-03T10:09:11;1.30;;;1.30;;
71810;SDS011;59657;0.000;0.000;2022-08-03T10:11:38;1.58;;;1.48;;
71810;SDS011;59657;0.000;0.000;2022-08-03T10:14:06;1.50;;;1.50;;
71810;SDS011;59657;0.000;0.000;2022-08-03T10:16:34;1.55;;;1.45;;
71810;SDS011;59657;0.000;0.000;2022-08-03T10:19:03;1.15;;;1.15;;
71810;SDS011;59657;0.000;0.000;2022-08-03T10:21:32;1.20;;;1.20;;
71810;SDS011;59657;0.000;0.000;2022-08-03T10:24:01;1.70;;;1.60;;
71810;SDS011;59657;0.000;0.000;2022-08-03T10:26:28;1.45;;;1.35;;
71810;SDS011;59657;0.000;0.000;2022-08-03T10:28:56;1.80;;;1.70;;
71810;SDS011;59657;0.000;0.000;2022-08-03T10:31:24;1.70;;;1.60;;
71810;SDS011;59657;0.000;0.000;2022-08-03T10:33:51;1.33;;;1.27;;
71810;SDS011;59657;0.000;0.000;2022-08-03T10:36:22;1.42;;;1.33;;
71810;SDS011;59657;0.000;0.000;2022-08-03T10:38:49;1.10;;;1.10;;
71810;SDS011;59657;0.000;0.000;2022-08-03T10:41:20;1.95;;;1.85;;
71810;SDS011;59657;0.000;0.000;2022-08-03T10:43:50;1.40;;;1.40;;
71810;SDS011;59657;0.000;0.000;2022-08-03T10:46:18;1.15;;;1.15;;
71810;SDS011;59657;0.000;0.000;2022-08-03T10:48:45;1.50;;;1.40;;
71810;SDS011;59657;0.000;0.000;2022-08-03T10:51:12;1.25;;;1.25;;
71810;SDS011;59657;0.000;0.000;2022-08-03T10:53:39;1.20;;;1.20;;
71810;SDS011;59657;0.000;0.000;2022-08-03T10:59:05;1.30;;;1.30;;
71810;SDS011;59657;0.000;0.000;2022-08-03T11:04:15;1.27;;;1.27;;
71810;SDS011;59657;0.000;0.000;2022-08-03T11:06:42;1.27;;;1.27;;
71810;SDS011;59657;0.000;0.000;2022-08-03T11:09:13;1.48;;;1.38;;
71810;SDS011;59657;0.000;0.000;2022-08-03T11:11:41;1.30;;;1.30;;
71810;SDS011;59657;0.000;0.000;2022-08-03T11:14:08;1.40;;;1.40;;
71810;SDS011;59657;0.000;0.000;2022-08-03T11:16:37;1.40;;;1.30;;
71810;SDS011;59657;0.000;0.000;2022-08-03T11:19:06;1.30;;;1.30;;
71810;SDS011;59657;0.000;0.000;2022-08-03T11:21:51;1.23;;;1.23;;
71810;SDS011;59657;0.000;0.000;2022-08-03T11:27:32;1.23;;;1.23;;
71810;SDS011;59657;0.000;0.000;2022-08-03T11:30:01;1.50;;;1.42;;
71810;SDS011;59657;0.000;0.000;2022-08-03T11:35:18;1.30;;;1.30;;
71810;SDS011;59657;0.000;0.000;2022-08-03T11:40:33;1.20;;;1.20;;
71810;SDS011;59657;0.000;0.000;2022-08-03T11:43:01;1.42;;;1.33;;
71810;SDS011;59657;0.000;0.000;2022-08-03T11:45:28;1.52;;;1.45;;
71810;SDS011;59657;0.000;0.000;2022-08-03T11:47:55;1.38;;;1.38;;
71810;SDS011;59657;0.000;0.000;2022-08-03T11:50:24;1.23;;;1.13;;
71810;SDS011;59657;0.000;0.000;2022-08-03T11:52:50;1.10;;;1.10;;
71810;SDS011;59657;0.000;0.000;2022-08-03T11:55:18;1.30;;;1.30;;
71810;SDS011;59657;0.000;0.000;2022-08-03T11:57:46;1.25;;;1.25;;
71810;SDS011;59657;0.000;0.000;2022-08-03T12:00:21;1.30;;;1.30;;
71810;SDS011;59657;0.000;0.000;2022-08-03T12:02:57;1.08;;;1.08;;
71810;SDS011;59657;0.000;0.000;2022-08-03T12:05:41;1.17;;;1.17;;
71810;SDS011;59657;0.000;0.000;2022-08-03T12:08:09;1.40;;;1.40;;
71810;SDS011;59657;0.000;0.000;2022-08-03T12:10:36;1.30;;;1.20;;
71810;SDS011;59657;0.000;0.000;2022-08-03T12:13:03;1.60;;;1.50;;
71810;SDS011;59657;0.000;0.000;2022-08-03T12:15:32;1.60;;;1.50;;
71810;SDS011;59657;0.000;0.000;2022-08-03T12:20:26;1.73;;;1.63;;
71810;SDS011;59657;0.000;0.000;2022-08-03T12:22:53;1.48;;;1.40;;
71810;SDS011;59657;0.000;0.000;2022-08-03T12:27:46;1.63;;;1.52;;
71810;SDS011;59657;0.000;0.000;2022-08-03T12:32:38;1.30;;;1.30;;
71810;SDS011;59657;0.000;0.000;2022-08-03T12:35:08;1.30;;;1.30;;
71810;SDS011;59657;0.000;0.000;2022-08-03T12:37:35;1.08;;;1.08;;
71810;SDS011;59657;0.000;0.000;2022-08-03T12:42:30;1.52;;;1.42;;
71810;SDS011;59657;0.000;0.000;2022-08-03T12:44:56;1.17;;;1.13;;
71810;SDS011;59657;0.000;0.000;2022-08-03T12:49:50;1.38;;;1.27;;
71810;SDS011;59657;0.000;0.000;2022-08-03T12:52:17;1.75;;;1.65;;
71810;SDS011;59657;0.000;0.000;2022-08-03T12:54:59;1.25;;;1.15;;
71810;SDS011;59657;0.000;0.000;2022-08-03T13:00:15;1.30;;;1.30;;
71810;SDS011;59657;0.000;0.000;2022-08-03T13:02:43;1.10;;;1.10;;
71810;SDS011;59657;0.000;0.000;2022-08-03T13:05:10;1.00;;;1.00;;
71810;SDS011;59657;0.000;0.000;2022-08-03T13:07:41;1.27;;;1.27;;
71810;SDS011;59657;0.000;0.000;2022-08-03T13:10:08;1.25;;;1.20;;
71810;SDS011;59657;0.000;0.000;2022-08-03T13:12:44;1.50;;;1.40;;
71810;SDS011;59657;0.000;0.000;2022-08-03T13:15:11;1.05;;;1.05;;
71810;SDS011;59657;0.000;0.000;2022-08-03T13:17:41;1.25;;;1.20;;
71810;SDS011;59657;0.000;0.000;2022-08-03T13:20:08;1.83;;;1.80;;
71810;SDS011;59657;0.000;0.000;2022-08-03T13:22:34;0.98;;;0.98;;
71810;SDS011;59657;0.000;0.000;2022-08-03T13:25:01;1.67;;;1.67;;
71810;SDS011;59657;0.000;0.000;2022-08-03T13:27:28;0.82;;;0.82;;
71810;SDS011;59657;0.000;0.000;2022-08-03T13:29:55;0.98;;;0.98;;
71810;SDS011;59657;0.000;0.000;2022-08-03T13:34:47;0.80;;;0.80;;
71810;SDS011;59657;0.000;0.000;2022-08-03T13:37:14;0.95;;;0.95;;
71810;SDS011;59657;0.000;0.000;2022-08-03T13:42:07;0.82;;;0.82;;
71810;SDS011;59657;0.000;0.000;2022-08-03T13:47:01;1.08;;;1.08;;
71810;SDS011;59657;0.000;0.000;2022-08-03T13:49:28;0.75;;;0.75;;
71810;SDS011;59657;0.000;0.000;2022-08-03T13:54:21;0.80;;;0.80;;
71810;SDS011;59657;0.000;0.000;2022-08-03T13:56:47;0.70;;;0.70;;
71810;SDS011;59657;0.000;0.000;2022-08-03T13:59:17;0.80;;;0.80;;
71810;SDS011;59657;0.000;0.000;2022-08-03T14:01:45;0.90;;;0.90;;
71810;SDS011;59657;0.000;0.000;2022-08-03T14:04:11;1.00;;;1.00;;
71810;SDS011;59657;0.000;0.000;2022-08-03T14:09:04;0.70;;;0.70;;
71810;SDS011;59657;0.000;0.000;2022-08-03T14:13:57;0.80;;;0.80;;
71810;SDS011;59657;0.000;0.000;2022-08-03T14:16:23;0.80;;;0.80;;
71810;SDS011;59657;0.000;0.000;2022-08-03T14:18:50;0.80;;;0.80;;
71810;SDS011;59657;0.000;0.000;2022-08-03T14:21:16;0.80;;;0.80;;
71810;SDS011;59657;0.000;0.000;2022-08-03T14:23:43;0.50;;;0.50;;
71810;SDS011;59657;0.000;0.000;2022-08-03T14:26:09;0.73;;;0.73;;
71810;SDS011;59657;0.000;0.000;2022-08-03T14:28:36;0.60;;;0.60;;
71810;SDS011;59657;0.000;0.000;2022-08-03T14:33:28;0.90;;;0.90;;
71810;SDS011;59657;0.000;0.000;2022-08-03T14:35:55;0.68;;;0.68;;
71810;SDS011;59657;0.000;0.000;2022-08-03T14:38:22;0.85;;;0.85;;
71810;SDS011;59657;0.000;0.000;2022-08-03T14:40:49;0.90;;;0.90;;
71810;SDS011;59657;0.000;0.000;2022-08-03T14:43:15;0.70;;;0.70;;
71810;SDS011;59657;0.000;0.000;2022-08-03T14:45:42;1.00;;;1.00;;
71810;SDS011;59657;0.000;0.000;2022-08-03T14:50:36;0.70;;;0.70;;
71810;SDS011;59657;0.000;0.000;2022-08-03T14:53:03;0.90;;;0.90;;
71810;SDS011;59657;0.000;0.000;2022-08-03T14:55:29;0.95;;;0.95;;
71810;SDS011;59657;0.000;0.000;2022-08-03T14:57:56;0.80;;;0.80;;
71810;SDS011;59657;0.000;0.000;2022-08-03T15:00:24;0.60;;;0.60;;
71810;SDS011;59657;0.000;0.000;2022-08-03T15:05:16;0.90;;;0.90;;
71810;SDS011;59657;0.000;0.000;2022-08-03T15:07:43;1.20;;;1.20;;
71810;SDS011;59657;0.000;0.000;2022-08-03T15:12:35;1.05;;;1.05;;
71810;SDS011;59657;0.000;0.000;2022-08-03T15:15:02;0.90;;;0.90;;
71810;SDS011;59657;0.000;0.000;2022-08-03T15:19:55;0.95;;;0.95;;
71810;SDS011;59657;0.000;0.000;2022-08-03T15:22:21;0.60;;;0.60;;
71810;SDS011;59657;0.000;0.000;2022-08-03T15:27:14;1.00;;;1.00;;
71810;SDS011;59657;0.000;0.000;2022-08-03T15:29:40;0.73;;;0.73;;
71810;SDS011;59657;0.000;0.000;2022-08-03T15:32:07;1.20;;;1.20;;
71810;SDS011;59657;0.000;0.000;2022-08-03T15:36:59;0.60;;;0.60;;
71810;SDS011;59657;0.000;0.000;2022-08-03T15:41:52;0.77;;;0.77;;
71810;SDS011;59657;0.000;0.000;2022-08-03T15:46:45;0.80;;;0.80;;
71810;SDS011;59657;0.000;0.000;2022-08-03T15:49:12;0.80;;;0.80;;
71810;SDS011;59657;0.000;0.000;2022-08-03T15:51:38;0.77;;;0.77;;
71810;SDS011;59657;0.000;0.000;2022-08-03T15:54:05;0.70;;;0.70;;
71810;SDS011;59657;0.000;0.000;2022-08-03T15:56:32;0.80;;;0.80;;
71810;SDS011;59657;0.000;0.000;2022-08-03T16:01:26;0.70;;;0.70;;
71810;SDS011;59657;0.000;0.000;2022-08-03T16:03:52;0.80;;;0.80;;
71810;SDS011;59657;0.000;0.000;2022-08-03T16:06:19;0.60;;;0.60;;
71810;SDS011;59657;0.000;0.000;2022-08-03T16:08:46;1.13;;;1.13;;
71810;SDS011;59657;0.000;0.000;2022-08-03T16:11:13;1.10;;;1.10;;
71810;SDS011;59657;0.000;0.000;2022-08-03T16:16:05;0.80;;;0.80;;
71810;SDS011;59657;0.000;0.000;2022-08-03T16:18:32;0.70;;;0.70;;
71810;SDS011;59657;0.000;0.000;2022-08-03T16:23:25;0.73;;;0.73;;
71810;SDS011;59657;0.000;0.000;2022-08-03T16:25:51;0.70;;;0.70;;
71810;SDS011;59657;0.000;0.000;2022-08-03T16:30:44;0.80;;;0.80;;
71810;SDS011;59657;0.000;0.000;2022-08-03T16:33:12;0.90;;;0.90;;
71810;SDS011;59657;0.000;0.000;2022-08-03T16:35:39;0.63;;;0.63;;
71810;SDS011;59657;0.000;0.000;2022-08-03T16:38:06;0.73;;;0.73;;
71810;SDS011;59657;0.000;0.000;2022-08-03T16:40:33;0.90;;;0.90;;
71810;SDS011;59657;0.000;0.000;2022-08-03T16:42:59;0.90;;;0.90;;
71810;SDS011;59657;0.000;0.000;2022-08-03T16:47:52;1.00;;;0.90;;
71810;SDS011;59657;0.000;0.000;2022-08-03T16:52:45;1.15;;;1.15;;
71810;SDS011;59657;0.000;0.000;2022-08-03T16:55:12;0.85;;;0.85;;
71810;SDS011;59657;0.000;0.000;2022-08-03T16:57:39;1.00;;;1.00;;
71810;SDS011;59657;0.000;0.000;2022-08-03T17:00:06;1.10;;;1.10;;
71810;SDS011;59657;0.000;0.000;2022-08-03T17:02:34;1.10;;;1.10;;
71810;SDS011;59657;0.000;0.000;2022-08-03T17:07:26;1.00;;;1.00;;
71810;SDS011;59657;0.000;0.000;2022-08-03T17:12:19;1.30;;;1.20;;
71810;SDS011;59657;0.000;0.000;2022-08-03T17:17:14;1.20;;;1.10;;
71810;SDS011;59657;0.000;0.000;2022-08-03T17:19:42;0.80;;;0.80;;
71810;SDS011;59657;0.000;0.000;2022-08-03T17:22:13;0.90;;;0.90;;
71810;SDS011;59657;0.000;0.000;2022-08-03T17:24:43;0.82;;;0.82;;
71810;SDS011;59657;0.000;0.000;2022-08-03T17:27:13;0.85;;;0.85;;
71810;SDS011;59657;0.000;0.000;2022-08-03T17:29:41;1.45;;;1.45;;
71810;SDS011;59657;0.000;0.000;2022-08-03T17:32:10;0.93;;;0.90;;
71810;SDS011;59657;0.000;0.000;2022-08-03T17:34:37;0.88;;;0.88;;
71810;SDS011;59657;0.000;0.000;2022-08-03T17:37:03;1.10;;;1.10;;
71810;SDS011;59657;0.000;0.000;2022-08-03T17:39:30;0.90;;;0.90;;
71810;SDS011;59657;0.000;0.000;2022-08-03T17:41:58;1.17;;;1.17;;
71810;SDS011;59657;0.000;0.000;2022-08-03T17:44:27;0.95;;;0.95;;
71810;SDS011;59657;0.000;0.000;2022-08-03T17:46:56;1.05;;;1.05;;
71810;SDS011;59657;0.000;0.000;2022-08-03T17:49:22;1.05;;;1.05;;
71810;SDS011;59657;0.000;0.000;2022-08-03T17:52:03;0.80;;;0.80;;
71810;SDS011;59657;0.000;0.000;2022-08-03T17:54:40;1.02;;;0.95;;
71810;SDS011;59657;0.000;0.000;2022-08-03T17:57:13;0.80;;;0.80;;
71810;SDS011;59657;0.000;0.000;2022-08-03T17:59:51;1.00;;;1.00;;
71810;SDS011;59657;0.000;0.000;2022-08-03T18:07:45;1.50;;;1.40;;
71810;SDS011;59657;0.000;0.000;2022-08-03T18:10:14;1.05;;;1.05;;
71810;SDS011;59657;0.000;0.000;2022-08-03T18:18:02;1.10;;;1.10;;
71810;SDS011;59657;0.000;0.000;2022-08-03T18:20:29;1.10;;;1.10;;
71810;SDS011;59657;0.000;0.000;2022-08-03T18:22:57;1.27;;;1.23;;
71810;SDS011;59657;0.000;0.000;2022-08-03T18:25:23;1.30;;;1.30;;
71810;SDS011;59657;0.000;0.000;2022-08-03T18:27:50;0.90;;;0.90;;
71810;SDS011;59657;0.000;0.000;2022-08-03T18:30:18;1.27;;;1.20;;